Time;durP1;ratioP1;P1;durP2;ratioP2;P2;SDS_P1;SDS_P2;PMS_P1;PMS_P2;Temp;Humidity;BMP_temperature;BMP_pressure;BME280_temperature;BME280_humidity;BME280_pressure;Samples;Min_cycle;Max_cycle;Signal;HPM_P1;HPM_P2
2023/05/06 00:00:55;;;;;;;7.93;7.53;;;21.60;80.10;;;;;;5075415;28;20514;-59
2023/05/06 00:03:22;;;;;;;8.43;8.03;;;21.60;80.20;;;;;;5086897;28;20491;-57
2023/05/06 00:05:50;;;;;;;8.00;7.50;;;21.60;80.30;;;;;;5095826;28;20445;-60
2023/05/06 00:08:17;;;;;;;7.93;7.53;;;21.60;80.40;;;;;;5096198;28;20496;-59
2023/05/06 00:10:44;;;;;;;8.10;7.70;;;21.60;80.20;;;;;;5096316;28;20943;-57
2023/05/06 00:13:11;;;;;;;8.23;7.93;;;21.60;80.30;;;;;;5086311;28;20526;-60
2023/05/06 00:15:38;;;;;;;8.13;7.73;;;21.60;80.20;;;;;;5081436;28;20450;-60
2023/05/06 00:18:05;;;;;;;9.00;8.50;;;21.50;80.20;;;;;;5084594;28;20451;-61
2023/05/06 00:20:32;;;;;;;8.20;7.70;;;21.50;80.20;;;;;;5088028;28;20483;-60
2023/05/06 00:23:00;;;;;;;7.50;7.20;;;21.50;80.60;;;;;;5082109;28;20486;-59
2023/05/06 00:25:27;;;;;;;7.90;7.47;;;21.50;80.50;;;;;;5084492;28;20487;-60
2023/05/06 00:27:54;;;;;;;7.90;7.50;;;21.50;80.40;;;;;;5084345;28;20463;-60
2023/05/06 00:30:21;;;;;;;8.07;7.73;;;21.50;80.40;;;;;;5078537;28;20475;-61
2023/05/06 00:32:48;;;;;;;8.07;7.77;;;21.50;80.50;;;;;;5088847;28;20458;-59
2023/05/06 00:35:15;;;;;;;9.03;8.40;;;21.50;80.50;;;;;;5094014;28;20568;-60
2023/05/06 00:37:45;;;;;;;8.27;7.87;;;21.50;80.60;;;;;;5094450;28;20489;-61
2023/05/06 00:40:14;;;;;;;7.73;7.33;;;21.50;80.50;;;;;;5084822;28;20485;-60
2023/05/06 00:42:41;;;;;;;8.30;7.93;;;21.50;80.60;;;;;;5074054;28;20475;-60
2023/05/06 00:45:08;;;;;;;9.27;8.77;;;21.50;80.60;;;;;;5073854;28;20491;-61
2023/05/06 00:47:35;;;;;;;8.43;8.03;;;21.50;80.50;;;;;;5073735;28;20863;-61
2023/05/06 00:50:02;;;;;;;8.07;7.67;;;21.50;80.50;;;;;;5075359;28;20979;-61
2023/05/06 00:52:30;;;;;;;8.57;8.17;;;21.50;80.50;;;;;;5073294;28;20475;-59
2023/05/06 00:54:57;;;;;;;8.47;8.07;;;21.50;80.50;;;;;;5073792;28;20546;-60
2023/05/06 00:57:25;;;;;;;8.50;8.10;;;21.50;80.60;;;;;;5074223;28;20533;-59
2023/05/06 00:59:52;;;;;;;8.37;7.97;;;21.50;80.60;;;;;;5094343;28;20486;-61
2023/05/06 01:02:19;;;;;;;8.40;8.00;;;21.50;80.60;;;;;;5094233;28;20526;-58
2023/05/06 01:04:46;;;;;;;8.30;7.90;;;21.50;80.70;;;;;;5094171;28;20549;-61
2023/05/06 01:07:23;;;;;;;8.90;8.50;;;21.50;80.60;;;;;;5093942;28;20530;-58
2023/05/06 01:09:56;;;;;;;8.13;7.73;;;21.50;81.40;;;;;;5073756;28;20537;-59
2023/05/06 01:12:30;;;;;;;8.80;8.30;;;21.50;80.70;;;;;;5073525;28;20443;-60
2023/05/06 01:15:07;;;;;;;7.30;7.00;;;21.50;80.60;;;;;;5073212;28;20463;-60
2023/05/06 01:17:36;;;;;;;7.90;7.60;;;21.50;80.70;;;;;;5086474;28;20469;-59
2023/05/06 01:20:06;;;;;;;8.40;8.00;;;21.50;80.60;;;;;;5093229;28;20457;-59
2023/05/06 01:22:36;;;;;;;8.17;7.77;;;21.50;80.80;;;;;;5093886;28;20446;-62
2023/05/06 01:25:05;;;;;;;8.37;8.00;;;21.50;80.70;;;;;;5093754;28;20489;-58
2023/05/06 01:27:32;;;;;;;9.00;8.60;;;21.40;80.70;;;;;;5078738;28;20447;-60
2023/05/06 01:30:00;;;;;;;8.43;8.07;;;21.40;80.70;;;;;;5073614;28;20482;-56
2023/05/06 01:32:38;;;;;;;8.63;8.13;;;21.40;80.70;;;;;;5073141;28;20475;-58
2023/05/06 01:35:15;;;;;;;9.20;8.80;;;21.40;80.70;;;;;;5073410;28;20514;-60
2023/05/06 01:37:47;;;;;;;8.20;7.80;;;21.40;80.90;;;;;;5088473;28;20882;-58
2023/05/06 01:40:17;;;;;;;8.40;8.03;;;21.40;80.90;;;;;;5092904;28;20537;-60
2023/05/06 01:42:47;;;;;;;8.00;7.70;;;21.40;80.80;;;;;;5093053;28;20482;-61
2023/05/06 01:45:16;;;;;;;9.43;8.93;;;21.40;80.70;;;;;;5084391;28;20543;-60
2023/05/06 01:47:43;;;;;;;8.40;8.00;;;21.40;80.70;;;;;;5072696;28;20444;-58
2023/05/06 01:50:11;;;;;;;8.67;8.20;;;21.40;80.60;;;;;;5072711;28;20475;-58
2023/05/06 01:52:38;;;;;;;8.07;7.77;;;21.30;80.50;;;;;;5072877;28;20526;-57
2023/05/06 01:55:06;;;;;;;7.70;7.30;;;21.40;80.50;;;;;;5078982;28;20486;-60
2023/05/06 01:57:34;;;;;;;8.27;7.87;;;21.40;80.40;;;;;;5092936;28;20474;-58
2023/05/06 02:00:01;;;;;;;8.33;7.90;;;21.40;80.30;;;;;;5093314;28;20474;-59
2023/05/06 02:02:28;;;;;;;7.10;6.80;;;21.40;80.30;;;;;;5092670;28;20474;-59
2023/05/06 02:04:55;;;;;;;7.97;7.60;;;21.40;80.30;;;;;;5073559;28;20494;-59
2023/05/06 02:07:22;;;;;;;8.40;8.00;;;21.40;80.20;;;;;;5073772;28;20527;-60
2023/05/06 02:09:48;;;;;;;7.53;7.23;;;21.40;80.20;;;;;;5072628;28;20475;-61
2023/05/06 02:12:15;;;;;;;8.23;7.83;;;21.40;80.30;;;;;;5072764;28;20518;-59
2023/05/06 02:14:44;;;;;;;8.30;7.80;;;21.30;80.30;;;;;;5089496;28;20873;-61
2023/05/06 02:17:10;;;;;;;7.80;7.50;;;21.30;80.20;;;;;;5092859;28;20520;-59
2023/05/06 02:19:37;;;;;;;8.03;7.73;;;21.30;80.30;;;;;;5093135;28;20866;-60
2023/05/06 02:22:04;;;;;;;7.40;7.10;;;21.30;80.10;;;;;;5092744;28;20565;-60
2023/05/06 02:24:31;;;;;;;8.37;7.97;;;21.30;80.10;;;;;;5077398;28;20463;-59
2023/05/06 02:26:58;;;;;;;7.30;7.00;;;21.30;80.10;;;;;;5073038;28;20502;-59
2023/05/06 02:29:25;;;;;;;6.67;6.37;;;21.30;80.10;;;;;;5072527;28;20490;-59
2023/05/06 02:31:53;;;;;;;7.30;7.03;;;21.30;80.00;;;;;;5072566;28;20475;-57
2023/05/06 02:34:20;;;;;;;7.63;7.13;;;21.30;80.10;;;;;;5081339;28;20557;-58
2023/05/06 02:36:47;;;;;;;7.83;7.40;;;21.30;80.20;;;;;;5092654;28;20485;-59
2023/05/06 02:39:14;;;;;;;7.70;7.30;;;21.30;80.10;;;;;;5092420;28;20911;-60
2023/05/06 02:41:41;;;;;;;7.63;7.27;;;21.30;80.10;;;;;;5092362;28;20474;-61
2023/05/06 02:44:07;;;;;;;6.97;6.77;;;21.30;80.00;;;;;;5087544;28;20906;-61
2023/05/06 02:46:35;;;;;;;7.40;7.10;;;21.30;79.70;;;;;;5092135;28;20872;-60
2023/05/06 02:49:03;;;;;;;6.97;6.77;;;21.30;79.80;;;;;;5092427;28;20636;-57
2023/05/06 02:51:30;;;;;;;8.10;7.70;;;21.30;79.80;;;;;;5078135;28;20522;-60
2023/05/06 02:53:57;;;;;;;7.20;6.90;;;21.30;79.80;;;;;;5072081;28;20502;-59
2023/05/06 02:56:23;;;;;;;8.07;7.67;;;21.30;79.80;;;;;;5072138;28;20535;-58
2023/05/06 02:58:50;;;;;;;6.93;6.70;;;21.30;79.80;;;;;;5071884;28;20482;-61
2023/05/06 03:01:17;;;;;;;7.20;6.90;;;21.30;79.80;;;;;;5079893;28;20557;-60
2023/05/06 03:03:45;;;;;;;7.10;6.80;;;21.20;79.60;;;;;;5091197;28;20553;-58
2023/05/06 03:06:14;;;;;;;7.60;7.20;;;21.20;79.60;;;;;;5091326;28;20971;-61
2023/05/06 03:08:40;;;;;;;7.50;7.20;;;21.20;79.50;;;;;;5091084;28;20517;-60
2023/05/06 03:11:07;;;;;;;7.10;6.80;;;21.20;79.50;;;;;;5080474;28;20526;-59
2023/05/06 03:13:34;;;;;;;7.67;7.37;;;21.20;79.50;;;;;;5071035;28;21022;-60
2023/05/06 03:16:03;;;;;;;7.53;7.23;;;21.20;79.60;;;;;;5073973;28;20852;-61
2023/05/06 03:18:29;;;;;;;7.57;7.27;;;21.20;79.70;;;;;;5088482;28;20529;-58
2023/05/06 03:20:56;;;;;;;7.53;7.23;;;21.20;79.60;;;;;;5094848;28;21073;-58
2023/05/06 03:23:25;;;;;;;7.37;7.07;;;21.20;79.70;;;;;;5094832;28;20982;-60
2023/05/06 03:25:51;;;;;;;7.60;7.30;;;21.20;79.70;;;;;;5094771;28;20639;-58
2023/05/06 03:28:18;;;;;;;6.97;6.77;;;21.20;79.70;;;;;;5082090;28;20482;-60
2023/05/06 03:30:45;;;;;;;7.47;7.17;;;21.20;79.80;;;;;;5074434;28;20526;-59
2023/05/06 03:33:12;;;;;;;7.43;7.03;;;21.20;79.80;;;;;;5074162;28;20944;-58
2023/05/06 03:35:39;;;;;;;7.43;7.13;;;21.20;79.80;;;;;;5074338;28;20869;-58
2023/05/06 03:38:06;;;;;;;6.77;6.57;;;21.20;79.80;;;;;;5084259;28;20450;-57
2023/05/06 03:40:35;;;;;;;7.63;7.33;;;21.20;79.70;;;;;;5094420;28;20872;-58
2023/05/06 03:43:01;;;;;;;8.60;8.30;;;21.20;79.80;;;;;;5094493;28;20537;-60
2023/05/06 03:45:28;;;;;;;7.90;7.60;;;21.20;79.70;;;;;;5094287;28;20553;-60
2023/05/06 03:47:55;;;;;;;8.00;7.70;;;21.20;79.70;;;;;;5094093;28;20567;-61
2023/05/06 03:50:22;;;;;;;7.77;7.30;;;21.20;79.90;;;;;;5094295;28;20442;-58
2023/05/06 03:52:49;;;;;;;7.50;6.90;;;21.20;79.80;;;;;;5094165;28;20529;-59
2023/05/06 03:55:16;;;;;;;7.37;6.97;;;21.20;79.40;;;;;;5094213;28;20541;-59
2023/05/06 03:57:44;;;;;;;7.50;7.20;;;21.20;79.30;;;;;;5093278;28;20873;-55
2023/05/06 04:00:12;;;;;;;7.53;7.13;;;21.30;79.50;;;;;;5094421;28;20478;-59
2023/05/06 04:02:41;;;;;;;7.10;6.80;;;21.30;79.20;;;;;;5094196;28;20565;-60
2023/05/06 04:05:09;;;;;;;7.67;7.27;;;21.20;79.80;;;;;;5093955;28;20551;-58
2023/05/06 04:07:36;;;;;;;8.10;7.70;;;21.30;79.90;;;;;;5089280;28;20478;-58
2023/05/06 04:10:02;;;;;;;8.10;7.60;;;21.30;79.40;;;;;;5073878;28;20853;-55
2023/05/06 04:12:29;;;;;;;8.00;7.60;;;21.30;79.40;;;;;;5073711;28;20965;-61
2023/05/06 04:14:58;;;;;;;7.50;7.20;;;21.30;79.40;;;;;;5073568;28;20485;-60
2023/05/06 04:17:25;;;;;;;8.60;8.10;;;21.30;80.10;;;;;;5089482;28;20519;-64
2023/05/06 04:19:52;;;;;;;8.60;8.20;;;21.30;80.50;;;;;;5093714;28;20208;-65
2023/05/06 04:22:19;;;;;;;8.93;8.50;;;21.40;80.60;;;;;;5093716;28;20477;-64
2023/05/06 04:24:46;;;;;;;8.40;7.80;;;21.40;80.40;;;;;;5093624;28;20501;-61
2023/05/06 04:27:13;;;;;;;8.23;7.60;;;21.50;79.70;;;;;;5089224;28;20530;-63
2023/05/06 04:29:40;;;;;;;8.37;7.97;;;21.60;79.40;;;;;;5074720;28;20778;-63
2023/05/06 04:32:10;;;;;;;7.97;7.57;;;21.60;79.10;;;;;;5073401;28;20531;-63
2023/05/06 04:34:37;;;;;;;7.97;7.57;;;21.60;78.70;;;;;;5073378;28;20479;-62
2023/05/06 04:37:05;;;;;;;9.27;8.77;;;21.70;78.40;;;;;;5085468;28;20474;-63
2023/05/06 04:39:33;;;;;;;8.50;8.10;;;21.80;78.30;;;;;;5093256;28;20506;-62
2023/05/06 04:42:01;;;;;;;9.97;9.37;;;21.80;78.00;;;;;;5093548;28;20482;-59
2023/05/06 04:44:28;;;;;;;8.97;8.47;;;21.80;77.70;;;;;;5093519;28;20482;-59
2023/05/06 04:46:55;;;;;;;8.90;8.30;;;21.80;77.40;;;;;;5084244;28;20828;-64
2023/05/06 04:49:23;;;;;;;10.20;9.60;;;21.80;77.30;;;;;;5092960;28;20450;-62
2023/05/06 04:51:50;;;;;;;9.60;9.00;;;21.90;77.00;;;;;;5093144;28;20503;-62
2023/05/06 04:54:17;;;;;;;9.37;8.97;;;21.90;76.80;;;;;;5092951;28;20494;-64
2023/05/06 04:56:44;;;;;;;8.60;8.20;;;21.90;76.60;;;;;;5083875;28;20944;-63
2023/05/06 04:59:11;;;;;;;9.00;8.60;;;21.90;76.50;;;;;;5072685;28;20479;-61
2023/05/06 05:01:38;;;;;;;8.70;8.23;;;21.90;76.50;;;;;;5072619;28;20569;-61
2023/05/06 05:04:04;;;;;;;9.33;8.70;;;21.90;76.60;;;;;;5072515;28;20543;-64
2023/05/06 05:06:33;;;;;;;9.20;8.80;;;21.90;76.80;;;;;;5079436;28;20532;-65
2023/05/06 05:09:00;;;;;;;9.07;8.67;;;21.80;76.80;;;;;;5092683;28;20453;-65
2023/05/06 05:11:27;;;;;;;8.53;8.23;;;21.80;77.10;;;;;;5092872;28;20470;-65
2023/05/06 05:13:54;;;;;;;8.88;8.38;;;21.80;77.70;;;;;;5091786;28;20432;-62
2023/05/06 05:16:21;;;;;;;10.53;9.93;;;21.80;77.50;;;;;;5090825;28;20283;-63
2023/05/06 05:18:47;;;;;;;9.63;9.13;;;21.90;77.10;;;;;;5092391;28;20529;-64
2023/05/06 05:21:15;;;;;;;10.47;9.97;;;21.90;76.70;;;;;;5092570;28;20529;-66
2023/05/06 05:23:43;;;;;;;10.37;9.80;;;21.90;76.30;;;;;;5092553;28;20549;-65
2023/05/06 05:26:11;;;;;;;10.30;9.80;;;22.00;76.40;;;;;;5074117;28;20455;-65
2023/05/06 05:28:38;;;;;;;9.23;8.83;;;22.00;76.00;;;;;;5072143;28;20565;-65
2023/05/06 05:31:06;;;;;;;10.10;9.60;;;22.00;75.90;;;;;;5085040;28;20474;-62
2023/05/06 05:36:01;;;;;;;9.43;9.03;;;22.10;75.70;;;;;;5059135;28;20468;-56
2023/05/06 05:38:28;;;;;;;10.10;9.50;;;22.10;75.30;;;;;;5052272;28;20810;-58
2023/05/06 05:40:56;;;;;;;9.43;9.03;;;22.20;75.20;;;;;;5052234;28;20476;-55
2023/05/06 05:43:24;;;;;;;10.30;9.80;;;22.20;75.60;;;;;;5052934;28;20571;-53
2023/05/06 05:45:51;;;;;;;9.90;9.40;;;22.20;75.40;;;;;;5066248;28;20839;-59
2023/05/06 05:48:18;;;;;;;9.00;8.60;;;22.30;74.80;;;;;;5071948;28;20466;-53
2023/05/06 05:50:45;;;;;;;11.33;10.70;;;22.40;74.50;;;;;;5074305;28;20479;-51
2023/05/06 05:53:12;;;;;;;10.00;9.50;;;22.40;74.70;;;;;;5067578;28;20439;-54
2023/05/06 05:55:39;;;;;;;11.53;10.90;;;22.30;74.60;;;;;;5053193;28;21024;-53
2023/05/06 05:58:09;;;;;;;10.70;10.20;;;22.40;74.30;;;;;;5053333;28;20456;-54
2023/05/06 06:00:36;;;;;;;10.03;9.40;;;22.40;74.10;;;;;;5054295;28;20497;-55
2023/05/06 06:03:03;;;;;;;11.03;10.40;;;22.40;74.80;;;;;;5070471;28;20510;-52
2023/05/06 06:05:30;;;;;;;11.63;11.10;;;22.40;74.10;;;;;;5074969;28;20495;-50
2023/05/06 06:07:56;;;;;;;12.40;11.70;;;22.40;74.00;;;;;;5074750;28;20508;-52
2023/05/06 06:10:23;;;;;;;12.27;11.67;;;22.40;73.80;;;;;;5073698;28;20463;-51
2023/05/06 06:12:50;;;;;;;11.33;10.80;;;22.50;73.80;;;;;;5067092;28;20468;-54
2023/05/06 06:15:18;;;;;;;11.63;11.00;;;22.50;73.70;;;;;;5071158;28;20494;-54
2023/05/06 06:17:45;;;;;;;12.23;11.63;;;22.50;73.70;;;;;;5074027;28;20482;-53
2023/05/06 06:20:13;;;;;;;12.10;11.40;;;22.40;73.50;;;;;;5073958;28;20479;-56
2023/05/06 06:22:40;;;;;;;12.27;11.57;;;22.50;73.70;;;;;;5062042;28;20569;-52
2023/05/06 06:25:08;;;;;;;12.20;11.50;;;22.50;73.50;;;;;;5052378;28;21018;-55
2023/05/06 06:27:35;;;;;;;10.73;10.13;;;22.40;73.90;;;;;;5055117;28;20444;-55
2023/05/06 06:30:02;;;;;;;11.40;10.70;;;22.40;74.90;;;;;;5052834;28;20480;-52
2023/05/06 06:32:31;;;;;;;10.83;10.23;;;22.30;74.90;;;;;;5052728;28;20910;-55
2023/05/06 06:34:57;;;;;;;10.43;9.83;;;22.30;74.80;;;;;;5051949;28;20572;-53
2023/05/06 06:37:24;;;;;;;10.40;9.90;;;22.30;74.30;;;;;;5052425;28;20526;-55
2023/05/06 06:39:51;;;;;;;10.07;9.60;;;22.30;74.30;;;;;;5052300;28;20531;-55
2023/05/06 06:42:18;;;;;;;9.93;9.43;;;22.30;74.20;;;;;;5052232;28;20537;-53
2023/05/06 06:44:45;;;;;;;10.30;9.80;;;22.30;74.20;;;;;;5051771;28;21008;-54
2023/05/06 06:47:12;;;;;;;10.33;9.83;;;22.20;74.10;;;;;;5052119;28;20864;-52
2023/05/06 06:49:40;;;;;;;9.97;9.47;;;22.20;74.10;;;;;;5052339;28;20475;-54
2023/05/06 06:52:07;;;;;;;10.27;9.70;;;22.20;74.10;;;;;;5055726;28;20515;-54
2023/05/06 06:54:34;;;;;;;10.10;9.60;;;22.10;74.00;;;;;;5056098;28;20555;-55
2023/05/06 06:57:00;;;;;;;9.87;9.43;;;22.10;74.10;;;;;;5054931;28;20475;-57
2023/05/06 06:59:27;;;;;;;9.90;9.40;;;22.10;74.10;;;;;;5056167;28;20448;-53
2023/05/06 07:01:54;;;;;;;10.43;9.93;;;22.10;74.10;;;;;;5056625;28;20869;-53
2023/05/06 07:04:21;;;;;;;9.87;9.50;;;22.00;73.90;;;;;;5062840;28;21110;-55
2023/05/06 07:06:49;;;;;;;10.77;10.20;;;22.00;74.10;;;;;;5067354;28;20472;-57
2023/05/06 07:09:16;;;;;;;10.70;9.87;;;22.00;75.20;;;;;;5054825;28;20527;-58
2023/05/06 07:11:43;;;;;;;10.07;9.67;;;22.00;76.60;;;;;;5054816;28;20534;-58
2023/05/06 07:14:11;;;;;;;10.23;9.77;;;22.00;76.70;;;;;;5054722;28;20538;-56
2023/05/06 07:16:38;;;;;;;11.33;10.73;;;22.10;76.80;;;;;;5054800;28;20973;-53
2023/05/06 07:19:04;;;;;;;10.90;10.30;;;22.10;76.50;;;;;;5054666;28;20866;-54
2023/05/06 07:21:32;;;;;;;10.10;9.63;;;22.20;76.60;;;;;;5055679;28;20458;-56
2023/05/06 07:24:01;;;;;;;11.00;10.40;;;22.10;76.90;;;;;;5057077;28;20483;-55
2023/05/06 07:26:27;;;;;;;10.80;10.23;;;22.20;76.20;;;;;;5056569;28;20526;-56
2023/05/06 07:28:54;;;;;;;11.03;10.53;;;22.30;75.70;;;;;;5055636;28;20487;-58
2023/05/06 07:31:21;;;;;;;9.83;9.53;;;22.30;75.50;;;;;;5065816;28;20483;-57
2023/05/06 07:33:48;;;;;;;10.30;9.90;;;22.30;75.40;;;;;;5074170;28;20475;-58
2023/05/06 07:36:15;;;;;;;9.93;9.53;;;22.40;76.50;;;;;;5074401;28;20522;-54
2023/05/06 07:38:42;;;;;;;9.43;9.13;;;22.40;76.60;;;;;;5074234;28;20462;-58
2023/05/06 07:41:10;;;;;;;10.97;10.20;;;22.40;76.20;;;;;;5072457;28;20972;-56
2023/05/06 07:43:37;;;;;;;11.17;10.57;;;22.40;76.20;;;;;;5060707;28;20479;-58
2023/05/06 07:46:04;;;;;;;10.17;9.83;;;22.50;75.60;;;;;;5054170;28;20531;-60
2023/05/06 07:48:32;;;;;;;10.80;10.30;;;22.50;75.70;;;;;;5054077;28;20539;-60
2023/05/06 07:51:00;;;;;;;10.30;9.90;;;22.50;75.80;;;;;;5054110;28;20798;-62
2023/05/06 07:53:27;;;;;;;10.00;9.60;;;22.50;76.10;;;;;;5062196;28;20543;-61
2023/05/06 07:55:57;;;;;;;10.97;10.47;;;22.50;75.70;;;;;;5074156;28;20467;-63
2023/05/06 07:58:25;;;;;;;9.93;9.52;;;22.60;75.70;;;;;;5073499;28;20854;-56
2023/05/06 08:00:52;;;;;;;10.57;10.17;;;22.60;76.00;;;;;;5076750;28;20232;-58
2023/05/06 08:03:19;;;;;;;10.13;9.77;;;22.60;75.80;;;;;;5075318;28;20513;-57
2023/05/06 08:05:46;;;;;;;10.50;10.10;;;22.60;75.40;;;;;;5072202;28;20546;-58
2023/05/06 08:08:13;;;;;;;11.30;10.80;;;22.60;75.20;;;;;;5073693;28;20512;-56
2023/05/06 08:10:40;;;;;;;10.43;10.03;;;22.60;75.40;;;;;;5073677;28;20479;-57
2023/05/06 08:13:06;;;;;;;11.13;10.63;;;22.70;75.40;;;;;;5075072;28;20450;-56
2023/05/06 08:15:35;;;;;;;10.23;9.83;;;22.60;75.30;;;;;;5073651;28;20498;-54
2023/05/06 08:18:02;;;;;;;10.90;10.40;;;22.70;75.20;;;;;;5074632;28;20450;-57
2023/05/06 08:20:29;;;;;;;9.87;9.57;;;22.70;75.00;;;;;;5074224;28;20625;-58
2023/05/06 08:22:56;;;;;;;10.00;9.70;;;22.70;75.00;;;;;;5074100;28;20570;-58
2023/05/06 08:25:23;;;;;;;10.00;9.70;;;22.70;75.00;;;;;;5067173;28;21035;-60
2023/05/06 08:27:50;;;;;;;10.83;10.37;;;22.70;75.00;;;;;;5055388;28;20552;-55
2023/05/06 08:30:17;;;;;;;10.77;10.37;;;22.70;74.80;;;;;;5055924;28;20444;-56
2023/05/06 08:32:45;;;;;;;10.00;9.70;;;22.70;74.70;;;;;;5055046;28;20440;-55
2023/05/06 08:35:12;;;;;;;9.73;9.43;;;22.80;74.70;;;;;;5057732;28;20483;-59
2023/05/06 08:37:40;;;;;;;9.37;9.07;;;22.70;74.70;;;;;;5053677;28;20452;-52
2023/05/06 08:40:18;;;;;;;9.70;9.40;;;22.70;75.20;;;;;;5055224;28;20981;-52
2023/05/06 08:42:47;;;;;;;10.53;10.13;;;22.70;74.90;;;;;;5054347;28;20476;-58
2023/05/06 08:45:14;;;;;;;10.13;9.73;;;22.70;75.00;;;;;;5055262;28;20464;-56
2023/05/06 08:47:41;;;;;;;10.07;9.77;;;22.60;74.50;;;;;;5054772;28;20448;-58
2023/05/06 08:50:10;;;;;;;10.13;9.73;;;22.60;73.90;;;;;;5053873;28;20883;-51
2023/05/06 08:52:38;;;;;;;10.60;10.17;;;22.60;73.60;;;;;;5053905;28;20523;-54
2023/05/06 08:55:07;;;;;;;10.90;10.40;;;22.60;73.80;;;;;;5053959;28;20500;-54
2023/05/06 08:57:34;;;;;;;10.27;9.57;;;22.60;74.20;;;;;;5052704;28;20463;-57
2023/05/06 09:00:03;;;;;;;10.00;9.17;;;22.60;74.50;;;;;;5052930;28;20433;-55
2023/05/06 09:02:30;;;;;;;10.53;10.07;;;22.60;75.00;;;;;;5052687;28;20924;-51
2023/05/06 09:04:57;;;;;;;10.30;9.80;;;22.60;74.90;;;;;;5052707;28;20563;-51
2023/05/06 09:07:25;;;;;;;10.27;9.77;;;22.60;75.10;;;;;;5053877;28;20475;-57
2023/05/06 09:09:52;;;;;;;10.83;10.30;;;22.60;75.10;;;;;;5054019;28;20452;-51
2023/05/06 09:12:19;;;;;;;11.07;10.57;;;22.60;75.00;;;;;;5052670;28;20480;-53
2023/05/06 09:14:50;;;;;;;10.93;10.43;;;22.70;75.00;;;;;;5052964;28;20892;-54
2023/05/06 09:17:22;;;;;;;11.20;10.60;;;22.70;75.20;;;;;;5070156;28;20494;-50
2023/05/06 09:19:51;;;;;;;9.80;9.40;;;22.70;75.30;;;;;;5073455;28;20459;-55
2023/05/06 09:22:20;;;;;;;11.33;10.67;;;22.60;76.50;;;;;;5073887;28;20447;-54
2023/05/06 09:24:55;;;;;;;11.60;11.00;;;22.70;77.70;;;;;;5067696;28;20560;-56
2023/05/06 09:27:23;;;;;;;11.90;11.10;;;22.60;78.10;;;;;;5060690;28;20864;-56
2023/05/06 09:30:01;;;;;;;10.90;10.20;;;22.60;78.10;;;;;;5072276;28;20854;-57
2023/05/06 09:32:28;;;;;;;10.20;9.60;;;22.60;78.10;;;;;;5073673;28;20439;-53
2023/05/06 09:34:55;;;;;;;10.70;10.20;;;22.60;77.90;;;;;;5074700;28;20566;-52
2023/05/06 09:37:22;;;;;;;10.33;9.83;;;22.60;78.30;;;;;;5071360;28;20488;-53
2023/05/06 09:39:53;;;;;;;10.70;10.30;;;22.60;78.30;;;;;;5055756;28;20855;-61
2023/05/06 09:42:22;;;;;;;11.17;10.77;;;22.50;79.50;;;;;;5052066;28;20531;-57
2023/05/06 09:44:51;;;;;;;9.02;8.63;;;22.60;79.50;;;;;;5051141;28;20869;-59
2023/05/06 09:47:18;;;;;;;10.23;9.83;;;22.50;79.20;;;;;;5051945;28;20293;-59
2023/05/06 09:49:45;;;;;;;10.40;10.00;;;22.60;79.60;;;;;;5054263;28;20487;-55
2023/05/06 09:52:13;;;;;;;9.40;9.00;;;22.60;79.30;;;;;;5053355;28;20440;-56
2023/05/06 09:54:40;;;;;;;9.87;9.57;;;22.60;78.80;;;;;;5053168;28;20468;-57
2023/05/06 09:57:12;;;;;;;9.90;9.40;;;22.70;78.30;;;;;;5053061;28;20455;-56
2023/05/06 09:59:40;;;;;;;9.37;9.07;;;22.70;77.90;;;;;;5056086;28;20534;-58
2023/05/06 10:02:08;;;;;;;10.10;9.37;;;22.70;77.80;;;;;;5051828;28;20532;-57
2023/05/06 10:04:37;;;;;;;9.73;9.23;;;22.70;78.10;;;;;;5051353;28;20527;-54
2023/05/06 10:07:04;;;;;;;9.13;8.83;;;22.70;78.20;;;;;;5051930;28;20566;-62
2023/05/06 10:09:32;;;;;;;9.50;9.20;;;22.70;78.20;;;;;;5051469;28;20502;-58
2023/05/06 10:12:01;;;;;;;8.20;7.90;;;22.70;78.00;;;;;;5052358;28;20476;-55
2023/05/06 10:14:29;;;;;;;9.07;8.67;;;22.70;77.60;;;;;;5051570;28;20240;-57
2023/05/06 10:16:59;;;;;;;8.73;8.33;;;22.70;76.00;;;;;;5051740;28;20456;-54
2023/05/06 10:19:28;;;;;;;8.53;8.23;;;22.80;75.60;;;;;;5033656;28;20487;-57
2023/05/06 10:22:08;;;;;;;8.60;8.33;;;22.80;75.50;;;;;;5052604;28;20472;-54
2023/05/06 10:24:46;;;;;;;9.03;8.73;;;22.80;75.20;;;;;;5055658;28;20483;-62
2023/05/06 10:27:16;;;;;;;9.70;9.40;;;22.80;75.40;;;;;;5057815;28;20809;-61
2023/05/06 10:29:47;;;;;;;7.90;7.70;;;22.80;75.70;;;;;;5057722;28;20505;-62
2023/05/06 10:32:22;;;;;;;8.50;8.27;;;22.80;74.80;;;;;;5063010;28;20526;-63
2023/05/06 10:35:03;;;;;;;9.07;8.77;;;22.80;74.70;;;;;;5059734;28;20516;-63
2023/05/06 10:37:32;;;;;;;10.07;9.47;;;22.80;74.70;;;;;;5077915;28;20442;-60
2023/05/06 10:40:05;;;;;;;8.40;8.20;;;22.80;74.30;;;;;;5076616;28;20535;-58
2023/05/06 10:42:34;;;;;;;8.30;8.07;;;22.90;74.20;;;;;;5078281;28;20474;-57
2023/05/06 10:45:09;;;;;;;8.10;7.90;;;22.90;73.50;;;;;;5077791;28;20498;-56
2023/05/06 10:48:09;;;;;;;8.70;8.37;;;22.90;73.30;;;;;;5071433;28;20448;-55
2023/05/06 10:50:41;;;;;;;8.97;8.67;;;22.90;73.20;;;;;;5058074;28;20938;-56
2023/05/06 10:53:10;;;;;;;8.77;8.50;;;22.90;73.30;;;;;;5058178;28;20492;-59
2023/05/06 10:55:40;;;;;;;8.70;8.50;;;22.90;73.30;;;;;;5058128;28;20468;-53
2023/05/06 10:58:14;;;;;;;8.70;8.40;;;22.90;72.90;;;;;;5066578;28;20856;-54
2023/05/06 11:00:54;;;;;;;8.60;8.30;;;23.00;72.80;;;;;;5077827;28;20497;-56
2023/05/06 11:03:24;;;;;;;8.50;8.20;;;23.00;72.70;;;;;;5077789;28;20490;-55
2023/05/06 11:05:56;;;;;;;7.93;7.73;;;23.00;72.40;;;;;;5077655;28;20462;-53
2023/05/06 11:08:25;;;;;;;8.17;7.97;;;23.00;72.20;;;;;;5071967;28;20463;-59
2023/05/06 11:11:05;;;;;;;6.30;6.10;;;23.00;71.80;;;;;;5056917;28;20497;-57
2023/05/06 11:13:35;;;;;;;7.03;6.90;;;23.00;72.20;;;;;;5057821;28;20202;-57
2023/05/06 11:16:07;;;;;;;7.90;7.70;;;23.00;71.90;;;;;;5057891;28;20472;-52
2023/05/06 11:18:45;;;;;;;7.70;7.40;;;23.00;71.70;;;;;;5059240;28;21008;-53
2023/05/06 11:21:40;;;;;;;8.57;8.17;;;23.10;71.80;;;;;;5062337;28;20821;-53
2023/05/06 11:24:16;;;;;;;7.70;7.50;;;23.10;71.90;;;;;;5056994;28;20989;-59
2023/05/06 11:26:44;;;;;;;7.10;7.00;;;23.10;71.30;;;;;;5057558;28;20505;-62
2023/05/06 11:29:12;;;;;;;7.80;7.60;;;23.10;71.50;;;;;;5058554;28;20803;-63
2023/05/06 11:31:45;;;;;;;7.10;6.90;;;23.10;71.60;;;;;;5057490;28;20444;-55
2023/05/06 11:34:23;;;;;;;7.40;7.20;;;23.10;71.30;;;;;;5081986;22;20494;-60
2023/05/06 11:37:02;;;;;;;8.37;8.07;;;23.20;71.30;;;;;;5072783;28;20429;-62
2023/05/06 11:39:32;;;;;;;7.80;7.40;;;23.20;71.00;;;;;;5071429;28;20447;-62
2023/05/06 11:42:05;;;;;;;7.90;7.70;;;23.10;70.20;;;;;;5061440;28;20506;-59
2023/05/06 11:44:36;;;;;;;7.80;7.60;;;23.20;70.20;;;;;;5056400;28;20559;-58
2023/05/06 11:47:10;;;;;;;7.60;7.40;;;23.20;70.30;;;;;;5056211;28;20448;-60
2023/05/06 11:49:39;;;;;;;8.23;7.90;;;23.20;70.40;;;;;;5057141;28;20872;-59
2023/05/06 11:52:10;;;;;;;7.40;7.23;;;23.20;71.00;;;;;;5056956;28;20448;-62
2023/05/06 11:54:39;;;;;;;7.23;7.03;;;23.20;71.10;;;;;;5056434;28;20464;-58
2023/05/06 11:57:10;;;;;;;7.73;7.53;;;23.20;70.70;;;;;;5057459;28;20469;-61
2023/05/06 11:59:39;;;;;;;7.30;7.07;;;23.20;69.50;;;;;;5062992;28;20475;-60
2023/05/06 12:02:08;;;;;;;8.20;7.87;;;23.20;69.20;;;;;;5064169;28;20518;-60
2023/05/06 12:04:40;;;;;;;7.80;7.50;;;23.20;69.00;;;;;;5064134;28;20516;-62
2023/05/06 12:07:08;;;;;;;7.97;7.67;;;23.20;69.20;;;;;;5065962;28;20484;-59
2023/05/06 12:09:36;;;;;;;7.90;7.60;;;23.20;69.50;;;;;;5065629;28;20452;-63
2023/05/06 12:12:04;;;;;;;7.90;7.70;;;23.30;70.00;;;;;;5066279;28;20456;-67
2023/05/06 12:14:32;;;;;;;8.23;7.93;;;23.30;70.40;;;;;;5056527;28;20492;-66
2023/05/06 12:16:59;;;;;;;7.90;7.50;;;23.30;70.40;;;;;;5056152;28;20477;-67
2023/05/06 12:19:29;;;;;;;8.40;8.00;;;23.40;70.50;;;;;;5064779;28;20475;-68
2023/05/06 12:21:56;;;;;;;7.80;7.60;;;23.40;70.50;;;;;;5075412;28;20493;-66
2023/05/06 12:24:29;;;;;;;7.53;7.32;;;23.40;70.30;;;;;;5074654;28;20530;-62
2023/05/06 12:26:56;;;;;;;6.10;5.90;;;23.40;70.50;;;;;;5072532;28;20744;-65
2023/05/06 12:29:23;;;;;;;8.07;7.87;;;23.50;71.10;;;;;;5074829;28;20232;-66
2023/05/06 12:32:06;;;;;;;8.17;7.67;;;23.50;71.00;;;;;;5074838;28;20494;-65
2023/05/06 12:34:38;;;;;;;7.50;7.27;;;23.50;70.80;;;;;;5074679;28;20943;-64
2023/05/06 12:37:05;;;;;;;8.27;7.87;;;23.60;70.70;;;;;;5073222;28;20882;-65
2023/05/06 12:39:34;;;;;;;7.60;7.30;;;23.60;70.60;;;;;;5074598;28;20458;-65
2023/05/06 12:42:02;;;;;;;7.22;7.03;;;23.60;70.50;;;;;;5074554;28;20435;-60
2023/05/06 12:44:34;;;;;;;7.60;7.10;;;23.60;70.20;;;;;;5073542;28;20453;-68
2023/05/06 12:47:02;;;;;;;7.87;7.60;;;23.60;70.40;;;;;;5072279;28;20447;-65
2023/05/06 12:52:23;;;;;;;8.43;8.23;;;23.70;70.40;;;;;;5161238;27;20562;-69
2023/05/06 12:54:51;;;;;;;7.70;7.53;;;23.80;70.10;;;;;;5171022;27;20486;-66